sensor_id;sensor_type;location;lat;lon;timestamp;P1;durP1;ratioP1;P2;durP2;ratioP2
35434;SDS011;21556;55.782;37.528;2024-02-26T00:00:24;7.70;;;3.70;;
35434;SDS011;21556;55.782;37.528;2024-02-26T00:02:50;4.63;;;3.20;;
35434;SDS011;21556;55.782;37.528;2024-02-26T00:05:19;5.70;;;3.27;;
35434;SDS011;21556;55.782;37.528;2024-02-26T00:07:48;5.97;;;3.07;;
35434;SDS011;21556;55.782;37.528;2024-02-26T00:10:29;4.53;;;3.20;;
35434;SDS011;21556;55.782;37.528;2024-02-26T00:12:55;4.30;;;3.07;;
35434;SDS011;21556;55.782;37.528;2024-02-26T00:15:30;5.43;;;2.87;;
35434;SDS011;21556;55.782;37.528;2024-02-26T00:17:59;5.47;;;3.30;;
35434;SDS011;21556;55.782;37.528;2024-02-26T00:20:29;6.53;;;3.30;;
35434;SDS011;21556;55.782;37.528;2024-02-26T00:23:00;7.53;;;2.80;;
35434;SDS011;21556;55.782;37.528;2024-02-26T00:25:26;5.67;;;3.20;;
35434;SDS011;21556;55.782;37.528;2024-02-26T00:27:58;7.43;;;3.63;;
35434;SDS011;21556;55.782;37.528;2024-02-26T00:30:27;4.73;;;2.90;;
35434;SDS011;21556;55.782;37.528;2024-02-26T00:32:54;5.70;;;3.00;;
35434;SDS011;21556;55.782;37.528;2024-02-26T00:35:23;6.60;;;3.40;;
35434;SDS011;21556;55.782;37.528;2024-02-26T00:37:55;5.93;;;3.30;;
35434;SDS011;21556;55.782;37.528;2024-02-26T00:40:24;6.03;;;3.20;;
35434;SDS011;21556;55.782;37.528;2024-02-26T00:42:50;7.07;;;3.13;;
35434;SDS011;21556;55.782;37.528;2024-02-26T00:45:16;4.13;;;2.77;;
35434;SDS011;21556;55.782;37.528;2024-02-26T00:47:42;3.77;;;2.67;;
35434;SDS011;21556;55.782;37.528;2024-02-26T00:50:11;6.13;;;2.97;;
35434;SDS011;21556;55.782;37.528;2024-02-26T00:52:40;4.73;;;2.90;;
35434;SDS011;21556;55.782;37.528;2024-02-26T00:55:06;4.33;;;2.53;;
35434;SDS011;21556;55.782;37.528;2024-02-26T00:57:49;6.30;;;2.67;;
35434;SDS011;21556;55.782;37.528;2024-02-26T01:00:16;6.57;;;3.17;;
35434;SDS011;21556;55.782;37.528;2024-02-26T01:02:42;6.57;;;2.70;;
35434;SDS011;21556;55.782;37.528;2024-02-26T01:05:11;5.43;;;2.60;;
35434;SDS011;21556;55.782;37.528;2024-02-26T01:07:45;5.47;;;2.87;;
35434;SDS011;21556;55.782;37.528;2024-02-26T01:10:16;5.77;;;3.27;;
35434;SDS011;21556;55.782;37.528;2024-02-26T01:12:44;5.63;;;2.87;;
35434;SDS011;21556;55.782;37.528;2024-02-26T01:15:15;4.77;;;2.97;;
35434;SDS011;21556;55.782;37.528;2024-02-26T01:17:49;3.67;;;1.67;;
35434;SDS011;21556;55.782;37.528;2024-02-26T01:20:24;6.17;;;2.90;;
35434;SDS011;21556;55.782;37.528;2024-02-26T01:22:52;5.10;;;2.83;;
35434;SDS011;21556;55.782;37.528;2024-02-26T01:25:25;4.83;;;2.40;;
35434;SDS011;21556;55.782;37.528;2024-02-26T01:27:52;6.47;;;3.57;;
35434;SDS011;21556;55.782;37.528;2024-02-26T01:30:18;5.77;;;2.30;;
35434;SDS011;21556;55.782;37.528;2024-02-26T01:32:48;5.20;;;2.37;;
35434;SDS011;21556;55.782;37.528;2024-02-26T01:35:17;4.20;;;2.70;;
35434;SDS011;21556;55.782;37.528;2024-02-26T01:40:12;3.57;;;2.27;;
35434;SDS011;21556;55.782;37.528;2024-02-26T01:42:52;3.47;;;2.30;;
35434;SDS011;21556;55.782;37.528;2024-02-26T01:45:18;7.57;;;2.87;;
35434;SDS011;21556;55.782;37.528;2024-02-26T01:47:50;3.27;;;2.23;;
35434;SDS011;21556;55.782;37.528;2024-02-26T01:50:19;4.30;;;2.03;;
35434;SDS011;21556;55.782;37.528;2024-02-26T01:52:49;5.50;;;2.47;;
35434;SDS011;21556;55.782;37.528;2024-02-26T01:55:21;5.03;;;2.10;;
35434;SDS011;21556;55.782;37.528;2024-02-26T01:57:49;4.13;;;2.57;;
35434;SDS011;21556;55.782;37.528;2024-02-26T02:00:17;6.70;;;1.80;;
35434;SDS011;21556;55.782;37.528;2024-02-26T02:02:45;1.97;;;1.10;;
35434;SDS011;21556;55.782;37.528;2024-02-26T02:05:25;3.40;;;2.60;;
35434;SDS011;21556;55.782;37.528;2024-02-26T02:07:55;6.03;;;2.63;;
35434;SDS011;21556;55.782;37.528;2024-02-26T02:10:40;4.47;;;2.30;;
35434;SDS011;21556;55.782;37.528;2024-02-26T02:13:11;5.15;;;2.33;;
35434;SDS011;21556;55.782;37.528;2024-02-26T02:15:37;4.50;;;2.30;;
35434;SDS011;21556;55.782;37.528;2024-02-26T02:18:03;4.37;;;2.40;;
35434;SDS011;21556;55.782;37.528;2024-02-26T02:20:33;6.50;;;2.20;;
35434;SDS011;21556;55.782;37.528;2024-02-26T02:23:03;5.37;;;2.50;;
35434;SDS011;21556;55.782;37.528;2024-02-26T02:25:29;3.57;;;2.00;;
35434;SDS011;21556;55.782;37.528;2024-02-26T02:27:58;3.80;;;2.03;;
35434;SDS011;21556;55.782;37.528;2024-02-26T02:30:28;3.67;;;2.27;;
35434;SDS011;21556;55.782;37.528;2024-02-26T02:33:05;7.13;;;2.33;;
35434;SDS011;21556;55.782;37.528;2024-02-26T02:35:32;3.63;;;1.60;;
35434;SDS011;21556;55.782;37.528;2024-02-26T02:38:00;3.87;;;1.90;;
35434;SDS011;21556;55.782;37.528;2024-02-26T02:40:27;4.87;;;1.90;;
35434;SDS011;21556;55.782;37.528;2024-02-26T02:42:53;3.77;;;1.90;;
35434;SDS011;21556;55.782;37.528;2024-02-26T02:45:19;5.37;;;2.47;;
35434;SDS011;21556;55.782;37.528;2024-02-26T02:50:13;3.53;;;1.97;;
35434;SDS011;21556;55.782;37.528;2024-02-26T02:52:39;4.13;;;2.10;;
35434;SDS011;21556;55.782;37.528;2024-02-26T02:55:11;3.37;;;1.67;;
35434;SDS011;21556;55.782;37.528;2024-02-26T02:57:45;7.40;;;2.07;;
35434;SDS011;21556;55.782;37.528;2024-02-26T03:00:14;3.35;;;2.13;;
35434;SDS011;21556;55.782;37.528;2024-02-26T03:02:42;2.87;;;1.60;;
35434;SDS011;21556;55.782;37.528;2024-02-26T03:05:13;3.93;;;1.77;;
35434;SDS011;21556;55.782;37.528;2024-02-26T03:07:39;2.87;;;1.80;;
35434;SDS011;21556;55.782;37.528;2024-02-26T03:10:05;3.50;;;1.70;;
35434;SDS011;21556;55.782;37.528;2024-02-26T03:12:33;2.90;;;1.80;;
35434;SDS011;21556;55.782;37.528;2024-02-26T03:15:00;7.05;;;2.38;;
35434;SDS011;21556;55.782;37.528;2024-02-26T03:17:31;4.63;;;2.07;;
35434;SDS011;21556;55.782;37.528;2024-02-26T03:19:57;2.47;;;1.50;;
35434;SDS011;21556;55.782;37.528;2024-02-26T03:22:23;3.33;;;2.17;;
35434;SDS011;21556;55.782;37.528;2024-02-26T03:24:49;3.90;;;2.03;;
35434;SDS011;21556;55.782;37.528;2024-02-26T03:27:16;4.10;;;1.90;;
35434;SDS011;21556;55.782;37.528;2024-02-26T03:29:42;6.60;;;2.10;;
35434;SDS011;21556;55.782;37.528;2024-02-26T03:32:08;6.50;;;1.67;;
35434;SDS011;21556;55.782;37.528;2024-02-26T03:34:34;2.63;;;1.73;;
35434;SDS011;21556;55.782;37.528;2024-02-26T03:37:07;3.40;;;2.20;;
35434;SDS011;21556;55.782;37.528;2024-02-26T03:39:38;4.40;;;1.93;;
35434;SDS011;21556;55.782;37.528;2024-02-26T03:42:04;3.63;;;2.30;;
35434;SDS011;21556;55.782;37.528;2024-02-26T03:44:33;5.10;;;1.97;;
35434;SDS011;21556;55.782;37.528;2024-02-26T03:47:00;6.67;;;2.20;;
35434;SDS011;21556;55.782;37.528;2024-02-26T03:49:29;4.33;;;1.90;;
35434;SDS011;21556;55.782;37.528;2024-02-26T03:51:58;4.27;;;2.00;;
35434;SDS011;21556;55.782;37.528;2024-02-26T03:54:26;7.18;;;2.33;;
35434;SDS011;21556;55.782;37.528;2024-02-26T03:56:52;2.77;;;2.00;;
35434;SDS011;21556;55.782;37.528;2024-02-26T03:59:18;4.67;;;2.53;;
35434;SDS011;21556;55.782;37.528;2024-02-26T04:01:45;5.23;;;2.13;;
35434;SDS011;21556;55.782;37.528;2024-02-26T04:04:15;4.00;;;2.30;;
35434;SDS011;21556;55.782;37.528;2024-02-26T04:06:45;6.20;;;2.30;;
35434;SDS011;21556;55.782;37.528;2024-02-26T04:09:13;4.87;;;2.23;;
35434;SDS011;21556;55.782;37.528;2024-02-26T04:11:40;3.88;;;1.85;;
35434;SDS011;21556;55.782;37.528;2024-02-26T04:14:06;4.83;;;2.13;;
35434;SDS011;21556;55.782;37.528;2024-02-26T04:16:36;3.00;;;1.77;;
35434;SDS011;21556;55.782;37.528;2024-02-26T04:19:08;3.17;;;1.90;;
35434;SDS011;21556;55.782;37.528;2024-02-26T04:21:43;4.23;;;2.80;;
35434;SDS011;21556;55.782;37.528;2024-02-26T04:24:12;3.67;;;2.40;;
35434;SDS011;21556;55.782;37.528;2024-02-26T04:26:39;6.23;;;2.20;;
35434;SDS011;21556;55.782;37.528;2024-02-26T04:29:04;5.97;;;2.60;;
35434;SDS011;21556;55.782;37.528;2024-02-26T04:31:30;3.37;;;2.10;;
35434;SDS011;21556;55.782;37.528;2024-02-26T04:33:58;3.08;;;2.13;;
35434;SDS011;21556;55.782;37.528;2024-02-26T04:36:24;5.90;;;2.53;;
35434;SDS011;21556;55.782;37.528;2024-02-26T04:38:53;4.17;;;1.97;;
35434;SDS011;21556;55.782;37.528;2024-02-26T04:41:22;6.17;;;2.37;;
35434;SDS011;21556;55.782;37.528;2024-02-26T04:43:50;4.23;;;2.40;;
35434;SDS011;21556;55.782;37.528;2024-02-26T04:46:16;5.90;;;2.90;;
35434;SDS011;21556;55.782;37.528;2024-02-26T04:48:42;3.60;;;1.87;;
35434;SDS011;21556;55.782;37.528;2024-02-26T04:53:36;3.13;;;2.00;;
35434;SDS011;21556;55.782;37.528;2024-02-26T04:56:03;3.60;;;1.93;;
35434;SDS011;21556;55.782;37.528;2024-02-26T04:58:29;4.13;;;2.37;;
35434;SDS011;21556;55.782;37.528;2024-02-26T05:00:55;5.80;;;2.50;;
35434;SDS011;21556;55.782;37.528;2024-02-26T05:03:21;7.37;;;2.50;;
35434;SDS011;21556;55.782;37.528;2024-02-26T05:05:47;7.37;;;2.50;;
35434;SDS011;21556;55.782;37.528;2024-02-26T05:08:16;4.53;;;2.43;;
35434;SDS011;21556;55.782;37.528;2024-02-26T05:10:51;4.83;;;2.40;;
35434;SDS011;21556;55.782;37.528;2024-02-26T05:13:18;4.90;;;2.60;;
35434;SDS011;21556;55.782;37.528;2024-02-26T05:15:44;6.63;;;2.57;;
35434;SDS011;21556;55.782;37.528;2024-02-26T05:20:40;5.43;;;2.85;;
35434;SDS011;21556;55.782;37.528;2024-02-26T05:23:09;6.80;;;2.90;;
35434;SDS011;21556;55.782;37.528;2024-02-26T05:25:35;5.57;;;3.17;;
35434;SDS011;21556;55.782;37.528;2024-02-26T05:30:30;10.10;;;3.40;;
35434;SDS011;21556;55.782;37.528;2024-02-26T05:33:02;4.77;;;2.50;;
35434;SDS011;21556;55.782;37.528;2024-02-26T05:35:28;5.40;;;2.70;;
35434;SDS011;21556;55.782;37.528;2024-02-26T05:37:57;4.97;;;2.70;;
35434;SDS011;21556;55.782;37.528;2024-02-26T05:40:24;6.37;;;3.63;;
35434;SDS011;21556;55.782;37.528;2024-02-26T05:42:50;5.10;;;2.83;;
35434;SDS011;21556;55.782;37.528;2024-02-26T05:45:17;4.63;;;2.97;;
35434;SDS011;21556;55.782;37.528;2024-02-26T05:50:11;6.47;;;3.80;;
35434;SDS011;21556;55.782;37.528;2024-02-26T05:52:43;8.57;;;2.97;;
35434;SDS011;21556;55.782;37.528;2024-02-26T05:55:14;5.20;;;3.17;;
35434;SDS011;21556;55.782;37.528;2024-02-26T05:57:40;5.73;;;3.27;;
35434;SDS011;21556;55.782;37.528;2024-02-26T06:00:06;5.40;;;3.50;;
35434;SDS011;21556;55.782;37.528;2024-02-26T06:02:44;9.52;;;3.17;;
35434;SDS011;21556;55.782;37.528;2024-02-26T06:05:13;5.77;;;3.27;;
35434;SDS011;21556;55.782;37.528;2024-02-26T06:07:40;6.93;;;3.77;;
35434;SDS011;21556;55.782;37.528;2024-02-26T06:10:08;5.23;;;3.40;;
35434;SDS011;21556;55.782;37.528;2024-02-26T06:12:35;7.13;;;3.80;;
35434;SDS011;21556;55.782;37.528;2024-02-26T06:15:03;9.77;;;4.07;;
35434;SDS011;21556;55.782;37.528;2024-02-26T06:17:32;8.47;;;3.70;;
35434;SDS011;21556;55.782;37.528;2024-02-26T06:20:00;8.00;;;4.10;;
35434;SDS011;21556;55.782;37.528;2024-02-26T06:22:27;7.73;;;3.70;;
35434;SDS011;21556;55.782;37.528;2024-02-26T06:24:54;7.27;;;3.70;;
35434;SDS011;21556;55.782;37.528;2024-02-26T06:27:23;7.10;;;3.97;;
35434;SDS011;21556;55.782;37.528;2024-02-26T06:29:52;7.57;;;4.53;;
35434;SDS011;21556;55.782;37.528;2024-02-26T06:32:18;8.93;;;4.33;;
35434;SDS011;21556;55.782;37.528;2024-02-26T06:34:51;6.30;;;3.50;;
35434;SDS011;21556;55.782;37.528;2024-02-26T06:37:18;7.20;;;3.53;;
35434;SDS011;21556;55.782;37.528;2024-02-26T06:40:04;8.60;;;3.67;;
35434;SDS011;21556;55.782;37.528;2024-02-26T06:42:42;4.90;;;3.80;;
35434;SDS011;21556;55.782;37.528;2024-02-26T06:45:15;6.57;;;4.03;;
35434;SDS011;21556;55.782;37.528;2024-02-26T06:47:50;9.17;;;3.70;;
35434;SDS011;21556;55.782;37.528;2024-02-26T06:50:16;7.10;;;3.30;;
35434;SDS011;21556;55.782;37.528;2024-02-26T06:52:44;7.13;;;3.87;;
35434;SDS011;21556;55.782;37.528;2024-02-26T06:55:11;9.23;;;3.60;;
35434;SDS011;21556;55.782;37.528;2024-02-26T06:57:38;14.47;;;6.20;;
35434;SDS011;21556;55.782;37.528;2024-02-26T07:00:05;8.13;;;4.00;;
35434;SDS011;21556;55.782;37.528;2024-02-26T07:02:31;9.50;;;4.50;;
35434;SDS011;21556;55.782;37.528;2024-02-26T07:04:57;6.33;;;3.97;;
35434;SDS011;21556;55.782;37.528;2024-02-26T07:07:24;6.67;;;3.97;;
35434;SDS011;21556;55.782;37.528;2024-02-26T07:13:56;9.10;;;5.23;;
35434;SDS011;21556;55.782;37.528;2024-02-26T07:16:25;7.40;;;3.80;;
35434;SDS011;21556;55.782;37.528;2024-02-26T07:18:52;10.17;;;4.83;;
35434;SDS011;21556;55.782;37.528;2024-02-26T07:21:18;7.10;;;3.63;;
35434;SDS011;21556;55.782;37.528;2024-02-26T07:24:03;8.83;;;4.30;;
35434;SDS011;21556;55.782;37.528;2024-02-26T07:26:29;6.70;;;4.27;;
35434;SDS011;21556;55.782;37.528;2024-02-26T07:28:56;6.53;;;4.07;;
35434;SDS011;21556;55.782;37.528;2024-02-26T07:31:22;9.27;;;4.83;;
35434;SDS011;21556;55.782;37.528;2024-02-26T07:33:48;13.07;;;4.17;;
35434;SDS011;21556;55.782;37.528;2024-02-26T07:36:14;7.90;;;4.33;;
35434;SDS011;21556;55.782;37.528;2024-02-26T07:38:40;5.80;;;3.97;;
35434;SDS011;21556;55.782;37.528;2024-02-26T07:41:09;7.97;;;4.23;;
35434;SDS011;21556;55.782;37.528;2024-02-26T07:43:38;8.20;;;4.00;;
35434;SDS011;21556;55.782;37.528;2024-02-26T07:46:04;6.77;;;4.30;;
35434;SDS011;21556;55.782;37.528;2024-02-26T07:48:31;7.23;;;4.20;;
35434;SDS011;21556;55.782;37.528;2024-02-26T07:51:00;10.43;;;4.83;;
35434;SDS011;21556;55.782;37.528;2024-02-26T07:55:59;7.93;;;3.97;;
35434;SDS011;21556;55.782;37.528;2024-02-26T07:58:25;8.07;;;3.83;;
35434;SDS011;21556;55.782;37.528;2024-02-26T08:00:51;9.30;;;4.70;;
35434;SDS011;21556;55.782;37.528;2024-02-26T08:03:17;8.63;;;4.43;;
35434;SDS011;21556;55.782;37.528;2024-02-26T08:05:46;9.57;;;4.20;;
35434;SDS011;21556;55.782;37.528;2024-02-26T08:08:12;11.20;;;4.40;;
35434;SDS011;21556;55.782;37.528;2024-02-26T08:10:38;8.77;;;4.37;;
35434;SDS011;21556;55.782;37.528;2024-02-26T08:13:10;7.80;;;4.00;;
35434;SDS011;21556;55.782;37.528;2024-02-26T08:15:36;7.10;;;4.50;;
35434;SDS011;21556;55.782;37.528;2024-02-26T08:18:07;8.03;;;4.40;;
35434;SDS011;21556;55.782;37.528;2024-02-26T08:20:34;8.17;;;3.73;;
35434;SDS011;21556;55.782;37.528;2024-02-26T08:23:03;9.13;;;4.10;;
35434;SDS011;21556;55.782;37.528;2024-02-26T08:25:29;8.73;;;3.90;;
35434;SDS011;21556;55.782;37.528;2024-02-26T08:27:58;7.13;;;3.90;;
35434;SDS011;21556;55.782;37.528;2024-02-26T08:30:24;7.67;;;3.97;;
35434;SDS011;21556;55.782;37.528;2024-02-26T08:32:50;8.93;;;4.03;;
35434;SDS011;21556;55.782;37.528;2024-02-26T08:35:16;7.23;;;3.50;;
35434;SDS011;21556;55.782;37.528;2024-02-26T08:37:45;9.97;;;4.77;;
35434;SDS011;21556;55.782;37.528;2024-02-26T08:40:12;10.40;;;4.40;;
35434;SDS011;21556;55.782;37.528;2024-02-26T08:42:39;11.27;;;4.37;;
35434;SDS011;21556;55.782;37.528;2024-02-26T08:45:05;12.90;;;4.43;;
35434;SDS011;21556;55.782;37.528;2024-02-26T08:47:32;7.67;;;3.67;;
35434;SDS011;21556;55.782;37.528;2024-02-26T08:49:58;9.10;;;4.80;;
35434;SDS011;21556;55.782;37.528;2024-02-26T08:52:24;6.97;;;3.67;;
35434;SDS011;21556;55.782;37.528;2024-02-26T08:54:50;6.93;;;4.63;;
35434;SDS011;21556;55.782;37.528;2024-02-26T08:57:16;10.20;;;4.37;;
35434;SDS011;21556;55.782;37.528;2024-02-26T08:59:42;8.27;;;4.00;;
35434;SDS011;21556;55.782;37.528;2024-02-26T09:02:08;9.43;;;4.10;;
35434;SDS011;21556;55.782;37.528;2024-02-26T09:04:37;5.95;;;3.50;;
35434;SDS011;21556;55.782;37.528;2024-02-26T09:07:03;8.27;;;4.37;;
35434;SDS011;21556;55.782;37.528;2024-02-26T09:09:29;7.37;;;4.00;;
35434;SDS011;21556;55.782;37.528;2024-02-26T09:14:23;7.73;;;4.20;;
35434;SDS011;21556;55.782;37.528;2024-02-26T09:16:53;11.57;;;4.67;;
35434;SDS011;21556;55.782;37.528;2024-02-26T09:19:19;10.87;;;4.67;;
35434;SDS011;21556;55.782;37.528;2024-02-26T09:21:45;7.33;;;4.47;;
35434;SDS011;21556;55.782;37.528;2024-02-26T09:24:30;7.37;;;4.27;;
35434;SDS011;21556;55.782;37.528;2024-02-26T09:26:56;9.60;;;4.40;;
35434;SDS011;21556;55.782;37.528;2024-02-26T09:29:24;9.75;;;3.67;;
35434;SDS011;21556;55.782;37.528;2024-02-26T09:31:52;10.73;;;3.42;;
35434;SDS011;21556;55.782;37.528;2024-02-26T09:34:18;8.83;;;4.30;;
35434;SDS011;21556;55.782;37.528;2024-02-26T09:36:44;6.43;;;4.07;;
35434;SDS011;21556;55.782;37.528;2024-02-26T09:39:10;6.43;;;3.93;;
35434;SDS011;21556;55.782;37.528;2024-02-26T09:41:37;8.27;;;4.17;;
35434;SDS011;21556;55.782;37.528;2024-02-26T09:44:04;9.87;;;3.33;;
35434;SDS011;21556;55.782;37.528;2024-02-26T09:46:33;7.80;;;3.87;;
35434;SDS011;21556;55.782;37.528;2024-02-26T09:48:59;11.57;;;5.33;;
35434;SDS011;21556;55.782;37.528;2024-02-26T09:51:26;8.53;;;3.40;;
35434;SDS011;21556;55.782;37.528;2024-02-26T09:53:52;8.90;;;3.87;;
35434;SDS011;21556;55.782;37.528;2024-02-26T09:56:19;7.80;;;3.90;;
35434;SDS011;21556;55.782;37.528;2024-02-26T09:58:46;7.70;;;4.50;;
35434;SDS011;21556;55.782;37.528;2024-02-26T10:01:31;7.13;;;3.78;;
35434;SDS011;21556;55.782;37.528;2024-02-26T10:06:26;10.10;;;3.65;;
35434;SDS011;21556;55.782;37.528;2024-02-26T10:09:11;7.57;;;3.80;;
35434;SDS011;21556;55.782;37.528;2024-02-26T10:11:43;8.13;;;3.38;;
35434;SDS011;21556;55.782;37.528;2024-02-26T10:14:10;8.30;;;3.80;;
35434;SDS011;21556;55.782;37.528;2024-02-26T10:16:37;6.80;;;4.45;;
35434;SDS011;21556;55.782;37.528;2024-02-26T10:19:03;6.90;;;3.13;;
35434;SDS011;21556;55.782;37.528;2024-02-26T10:21:29;13.23;;;4.80;;
35434;SDS011;21556;55.782;37.528;2024-02-26T10:23:55;5.50;;;2.67;;
35434;SDS011;21556;55.782;37.528;2024-02-26T10:26:22;10.55;;;4.70;;
35434;SDS011;21556;55.782;37.528;2024-02-26T10:28:48;10.77;;;4.15;;
35434;SDS011;21556;55.782;37.528;2024-02-26T10:31:14;8.57;;;4.80;;
35434;SDS011;21556;55.782;37.528;2024-02-26T10:33:41;8.57;;;4.60;;
35434;SDS011;21556;55.782;37.528;2024-02-26T10:36:09;8.90;;;4.97;;
35434;SDS011;21556;55.782;37.528;2024-02-26T10:38:35;5.37;;;3.27;;
35434;SDS011;21556;55.782;37.528;2024-02-26T10:41:06;9.23;;;4.22;;
35434;SDS011;21556;55.782;37.528;2024-02-26T10:43:32;11.98;;;4.68;;
35434;SDS011;21556;55.782;37.528;2024-02-26T10:45:58;11.35;;;4.20;;
35434;SDS011;21556;55.782;37.528;2024-02-26T10:48:24;10.53;;;3.40;;
35434;SDS011;21556;55.782;37.528;2024-02-26T10:50:51;6.30;;;3.70;;
35434;SDS011;21556;55.782;37.528;2024-02-26T10:53:21;9.95;;;4.35;;
35434;SDS011;21556;55.782;37.528;2024-02-26T10:55:51;5.85;;;3.63;;
35434;SDS011;21556;55.782;37.528;2024-02-26T10:58:21;9.10;;;4.07;;
35434;SDS011;21556;55.782;37.528;2024-02-26T11:00:49;7.90;;;4.10;;
35434;SDS011;21556;55.782;37.528;2024-02-26T11:03:16;11.05;;;4.20;;
35434;SDS011;21556;55.782;37.528;2024-02-26T11:05:48;11.20;;;4.40;;
35434;SDS011;21556;55.782;37.528;2024-02-26T11:08:16;8.53;;;3.63;;
35434;SDS011;21556;55.782;37.528;2024-02-26T11:10:54;6.70;;;4.43;;
35434;SDS011;21556;55.782;37.528;2024-02-26T11:13:22;11.73;;;4.13;;
35434;SDS011;21556;55.782;37.528;2024-02-26T11:15:52;8.73;;;4.53;;
35434;SDS011;21556;55.782;37.528;2024-02-26T11:18:20;10.68;;;4.13;;
35434;SDS011;21556;55.782;37.528;2024-02-26T11:20:54;9.40;;;4.27;;
35434;SDS011;21556;55.782;37.528;2024-02-26T11:24:08;8.23;;;3.97;;
35434;SDS011;21556;55.782;37.528;2024-02-26T11:34:00;5.30;;;3.70;;
35434;SDS011;21556;55.782;37.528;2024-02-26T11:36:27;10.13;;;4.63;;
35434;SDS011;21556;55.782;37.528;2024-02-26T11:38:54;7.93;;;3.97;;
35434;SDS011;21556;55.782;37.528;2024-02-26T11:41:20;8.67;;;4.33;;
35434;SDS011;21556;55.782;37.528;2024-02-26T11:43:57;14.67;;;4.90;;
35434;SDS011;21556;55.782;37.528;2024-02-26T11:46:28;7.37;;;3.97;;
35434;SDS011;21556;55.782;37.528;2024-02-26T11:48:58;10.03;;;4.10;;
35434;SDS011;21556;55.782;37.528;2024-02-26T11:51:32;10.03;;;4.00;;
35434;SDS011;21556;55.782;37.528;2024-02-26T11:54:00;9.73;;;4.33;;
35434;SDS011;21556;55.782;37.528;2024-02-26T11:56:26;9.87;;;4.70;;
35434;SDS011;21556;55.782;37.528;2024-02-26T11:58:53;8.20;;;4.97;;
35434;SDS011;21556;55.782;37.528;2024-02-26T12:04:27;12.07;;;4.82;;
35434;SDS011;21556;55.782;37.528;2024-02-26T12:06:56;7.20;;;4.43;;
35434;SDS011;21556;55.782;37.528;2024-02-26T12:09:32;11.70;;;5.07;;
35434;SDS011;21556;55.782;37.528;2024-02-26T12:12:08;8.48;;;4.10;;
35434;SDS011;21556;55.782;37.528;2024-02-26T12:14:39;7.68;;;4.93;;
35434;SDS011;21556;55.782;37.528;2024-02-26T12:17:19;9.32;;;5.10;;
35434;SDS011;21556;55.782;37.528;2024-02-26T12:19:46;7.23;;;4.10;;
35434;SDS011;21556;55.782;37.528;2024-02-26T12:22:12;9.52;;;4.20;;
35434;SDS011;21556;55.782;37.528;2024-02-26T12:24:39;11.05;;;4.75;;
35434;SDS011;21556;55.782;37.528;2024-02-26T12:27:05;10.50;;;4.30;;
35434;SDS011;21556;55.782;37.528;2024-02-26T12:29:31;9.82;;;4.93;;
35434;SDS011;21556;55.782;37.528;2024-02-26T12:31:57;13.60;;;4.63;;
35434;SDS011;21556;55.782;37.528;2024-02-26T12:34:23;13.10;;;4.63;;
35434;SDS011;21556;55.782;37.528;2024-02-26T12:36:50;10.20;;;5.20;;
35434;SDS011;21556;55.782;37.528;2024-02-26T12:39:16;10.33;;;4.00;;
35434;SDS011;21556;55.782;37.528;2024-02-26T12:41:46;7.83;;;4.87;;
35434;SDS011;21556;55.782;37.528;2024-02-26T12:44:17;11.07;;;4.33;;
35434;SDS011;21556;55.782;37.528;2024-02-26T12:46:44;7.73;;;4.47;;
35434;SDS011;21556;55.782;37.528;2024-02-26T12:49:16;9.07;;;4.27;;
35434;SDS011;21556;55.782;37.528;2024-02-26T12:51:45;8.63;;;4.23;;
35434;SDS011;21556;55.782;37.528;2024-02-26T12:54:11;9.15;;;4.40;;
35434;SDS011;21556;55.782;37.528;2024-02-26T12:56:38;10.23;;;4.70;;
35434;SDS011;21556;55.782;37.528;2024-02-26T12:59:04;10.87;;;4.37;;
35434;SDS011;21556;55.782;37.528;2024-02-26T13:01:33;11.00;;;4.73;;
35434;SDS011;21556;55.782;37.528;2024-02-26T13:03:59;11.20;;;4.03;;
35434;SDS011;21556;55.782;37.528;2024-02-26T13:06:32;10.03;;;4.03;;
35434;SDS011;21556;55.782;37.528;2024-02-26T13:08:59;7.53;;;4.30;;
35434;SDS011;21556;55.782;37.528;2024-02-26T13:11:25;12.63;;;5.20;;
35434;SDS011;21556;55.782;37.528;2024-02-26T13:13:51;12.32;;;4.90;;
35434;SDS011;21556;55.782;37.528;2024-02-26T13:16:18;11.50;;;4.13;;
35434;SDS011;21556;55.782;37.528;2024-02-26T13:18:44;8.45;;;4.05;;
35434;SDS011;21556;55.782;37.528;2024-02-26T13:21:13;12.50;;;4.93;;
35434;SDS011;21556;55.782;37.528;2024-02-26T13:23:40;8.85;;;4.80;;
35434;SDS011;21556;55.782;37.528;2024-02-26T13:26:08;9.70;;;4.13;;
35434;SDS011;21556;55.782;37.528;2024-02-26T13:28:40;7.60;;;3.90;;
35434;SDS011;21556;55.782;37.528;2024-02-26T13:31:06;7.05;;;3.70;;
35434;SDS011;21556;55.782;37.528;2024-02-26T13:33:40;6.80;;;3.47;;
35434;SDS011;21556;55.782;37.528;2024-02-26T13:36:14;7.40;;;4.60;;
35434;SDS011;21556;55.782;37.528;2024-02-26T13:38:41;7.88;;;3.30;;
35434;SDS011;21556;55.782;37.528;2024-02-26T13:41:23;11.00;;;3.63;;
35434;SDS011;21556;55.782;37.528;2024-02-26T13:46:24;6.53;;;3.77;;
35434;SDS011;21556;55.782;37.528;2024-02-26T13:48:59;7.67;;;3.73;;
35434;SDS011;21556;55.782;37.528;2024-02-26T13:51:49;6.63;;;3.60;;
35434;SDS011;21556;55.782;37.528;2024-02-26T13:54:36;5.53;;;3.17;;
35434;SDS011;21556;55.782;37.528;2024-02-26T13:57:11;9.83;;;3.50;;
35434;SDS011;21556;55.782;37.528;2024-02-26T13:59:45;7.60;;;3.40;;
35434;SDS011;21556;55.782;37.528;2024-02-26T14:02:19;8.73;;;3.13;;
35434;SDS011;21556;55.782;37.528;2024-02-26T14:05:02;6.07;;;3.20;;
35434;SDS011;21556;55.782;37.528;2024-02-26T14:07:30;5.07;;;2.97;;
35434;SDS011;21556;55.782;37.528;2024-02-26T14:09:59;7.30;;;3.23;;
35434;SDS011;21556;55.782;37.528;2024-02-26T14:12:25;7.37;;;3.43;;
35434;SDS011;21556;55.782;37.528;2024-02-26T14:17:30;5.57;;;2.73;;
35434;SDS011;21556;55.782;37.528;2024-02-26T14:20:00;10.47;;;3.23;;
35434;SDS011;21556;55.782;37.528;2024-02-26T14:22:35;8.27;;;3.60;;
35434;SDS011;21556;55.782;37.528;2024-02-26T14:25:05;6.67;;;2.93;;
35434;SDS011;21556;55.782;37.528;2024-02-26T14:27:31;6.17;;;3.03;;
35434;SDS011;21556;55.782;37.528;2024-02-26T14:29:57;8.50;;;2.53;;
35434;SDS011;21556;55.782;37.528;2024-02-26T14:32:23;8.17;;;3.13;;
35434;SDS011;21556;55.782;37.528;2024-02-26T14:34:50;4.53;;;2.83;;
35434;SDS011;21556;55.782;37.528;2024-02-26T14:37:19;4.17;;;2.60;;
35434;SDS011;21556;55.782;37.528;2024-02-26T14:39:45;3.77;;;2.50;;
35434;SDS011;21556;55.782;37.528;2024-02-26T14:42:12;3.53;;;2.43;;
35434;SDS011;21556;55.782;37.528;2024-02-26T14:44:42;4.80;;;2.70;;
35434;SDS011;21556;55.782;37.528;2024-02-26T14:47:09;6.37;;;3.10;;
35434;SDS011;21556;55.782;37.528;2024-02-26T14:49:41;6.77;;;2.97;;
35434;SDS011;21556;55.782;37.528;2024-02-26T14:52:20;6.97;;;3.30;;
35434;SDS011;21556;55.782;37.528;2024-02-26T14:55:05;4.53;;;3.00;;
35434;SDS011;21556;55.782;37.528;2024-02-26T14:57:40;8.07;;;2.90;;
35434;SDS011;21556;55.782;37.528;2024-02-26T15:00:10;8.57;;;3.70;;
35434;SDS011;21556;55.782;37.528;2024-02-26T15:05:07;11.23;;;3.43;;
35434;SDS011;21556;55.782;37.528;2024-02-26T15:10:14;7.50;;;3.90;;
35434;SDS011;21556;55.782;37.528;2024-02-26T15:12:43;7.63;;;3.67;;
35434;SDS011;21556;55.782;37.528;2024-02-26T15:15:59;8.87;;;3.33;;
35434;SDS011;21556;55.782;37.528;2024-02-26T15:18:25;6.60;;;3.20;;
35434;SDS011;21556;55.782;37.528;2024-02-26T15:21:08;6.57;;;3.40;;
35434;SDS011;21556;55.782;37.528;2024-02-26T15:23:34;7.03;;;3.60;;
35434;SDS011;21556;55.782;37.528;2024-02-26T15:26:01;10.03;;;4.00;;
35434;SDS011;21556;55.782;37.528;2024-02-26T15:28:33;9.60;;;3.80;;
35434;SDS011;21556;55.782;37.528;2024-02-26T15:30:59;10.77;;;4.30;;